Time,TemperatureF,DewpointF,PressureIn,WindDirection,WindDirectionDegrees,WindSpeedMPH,WindSpeedGustMPH,Humidity,HourlyPrecipIn,Conditions,Clouds,dailyrainin,SoftwareType,DateUTC
2013-10-13 00:00:00,56.0,50.0,30.33,NE,50,26.0,28.0,79,-99.99,,,-99.99,,2013-10-13 04:00:00,
2013-10-13 00:43:00,56.0,50.0,30.33,NE,50,26.0,28.0,79,-99.99,,,-99.99,,2013-10-13 04:43:00,
2013-10-13 00:53:00,56.0,50.0,30.33,NE,50,26.0,28.0,79,-99.99,,,-99.99,,2013-10-13 04:53:00,
2013-10-13 01:00:00,56.0,50.0,30.32,NE,50,25.0,28.0,79,-99.99,,,-99.99,,2013-10-13 05:00:00,
2013-10-13 01:43:00,56.0,50.0,30.32,NE,50,25.0,28.0,79,-99.99,,,-99.99,,2013-10-13 05:43:00,
2013-10-13 01:52:00,56.0,50.0,30.32,NE,50,25.0,28.0,79,-99.99,,,-99.99,,2013-10-13 05:52:00,
2013-10-13 02:00:00,56.0,50.0,30.33,NE,50,26.0,28.0,79,-99.99,,,-99.99,,2013-10-13 06:00:00,
2013-10-13 02:42:00,56.0,50.0,30.33,NE,50,26.0,28.0,79,-99.99,,,-99.99,,2013-10-13 06:42:00,
2013-10-13 02:52:00,56.0,50.0,30.33,NE,50,26.0,28.0,79,-99.99,,,-99.99,,2013-10-13 06:52:00,
2013-10-13 03:00:00,56.0,49.0,30.31,NE,50,26.0,30.0,77,-99.99,,,-99.99,,2013-10-13 07:00:00,
2013-10-13 03:42:00,56.0,49.0,30.31,NE,50,26.0,30.0,77,-99.99,,,-99.99,,2013-10-13 07:42:00,
2013-10-13 03:52:00,56.0,49.0,30.31,NE,50,26.0,30.0,77,-99.99,,,-99.99,,2013-10-13 07:52:00,
2013-10-13 04:00:00,55.0,49.0,30.31,NE,50,24.0,26.0,78,-99.99,,,-99.99,,2013-10-13 08:00:00,
2013-10-13 04:42:00,55.0,49.0,30.31,NE,50,24.0,26.0,78,-99.99,,,-99.99,,2013-10-13 08:42:00,
2013-10-13 04:52:00,55.0,49.0,30.31,NE,50,24.0,26.0,78,-99.99,,,-99.99,,2013-10-13 08:52:00,
2013-10-13 05:00:00,55.0,49.0,30.33,ENE,60,24.0,26.0,78,-99.99,,,-99.99,,2013-10-13 09:00:00,
2013-10-13 05:43:00,55.0,49.0,30.33,ENE,60,24.0,26.0,78,-99.99,,,-99.99,,2013-10-13 09:43:00,
2013-10-13 05:53:00,55.0,49.0,30.33,ENE,60,24.0,26.0,78,-99.99,,,-99.99,,2013-10-13 09:53:00,
2013-10-13 06:00:00,55.0,49.0,30.32,NE,50,29.0,31.0,78,-99.99,,,-99.99,,2013-10-13 10:00:00,
2013-10-13 06:43:00,55.0,49.0,30.32,NE,50,29.0,31.0,78,-99.99,,,-99.99,,2013-10-13 10:43:00,
2013-10-13 06:52:00,55.0,49.0,30.32,NE,50,29.0,31.0,78,-99.99,,,-99.99,,2013-10-13 10:52:00,
2013-10-13 07:00:00,55.0,49.0,30.36,ENE,60,25.0,28.0,78,-99.99,,,-99.99,,2013-10-13 11:00:00,
2013-10-13 07:42:00,55.0,49.0,30.36,ENE,60,25.0,28.0,78,-99.99,,,-99.99,,2013-10-13 11:42:00,
2013-10-13 07:52:00,55.0,49.0,30.36,ENE,60,25.0,28.0,78,-99.99,,,-99.99,,2013-10-13 11:52:00,
2013-10-13 08:00:00,55.0,47.0,30.37,NE,50,29.0,31.0,74,-99.99,,,-99.99,,2013-10-13 12:00:00,
2013-10-13 08:42:00,55.0,47.0,30.37,NE,50,29.0,31.0,74,-99.99,,,-99.99,,2013-10-13 12:42:00,
2013-10-13 08:52:00,55.0,47.0,30.37,NE,50,29.0,31.0,74,-99.99,,,-99.99,,2013-10-13 12:52:00,
2013-10-13 09:00:00,56.0,48.0,30.39,NE,50,24.0,28.0,74,-99.99,,,-99.99,,2013-10-13 13:00:00,
2013-10-13 09:42:00,56.0,48.0,30.39,NE,50,24.0,28.0,74,-99.99,,,-99.99,,2013-10-13 13:42:00,
2013-10-13 09:52:00,56.0,48.0,30.39,NE,50,24.0,28.0,74,-99.99,,,-99.99,,2013-10-13 13:52:00,
2013-10-13 10:00:00,56.0,47.0,30.40,ENE,60,25.0,29.0,71,-99.99,,,-99.99,,2013-10-13 14:00:00,
2013-10-13 10:41:00,56.0,47.0,30.40,ENE,60,25.0,29.0,71,-99.99,,,-99.99,,2013-10-13 14:41:00,
2013-10-13 10:52:00,56.0,47.0,30.40,ENE,60,25.0,29.0,71,-99.99,,,-99.99,,2013-10-13 14:52:00,
2013-10-13 11:00:00,56.0,46.0,30.40,NE,50,24.0,26.0,69,-99.99,,,-99.99,,2013-10-13 15:00:00,
2013-10-13 11:43:00,56.0,46.0,30.40,NE,50,24.0,26.0,69,-99.99,,,-99.99,,2013-10-13 15:43:00,
2013-10-13 11:54:00,56.0,46.0,30.40,NE,50,24.0,26.0,69,-99.99,,,-99.99,,2013-10-13 15:54:00,
2013-10-13 12:00:00,57.0,46.0,30.40,ENE,70,23.0,24.0,66,-99.99,,,-99.99,,2013-10-13 16:00:00,
2013-10-13 12:42:00,57.0,46.0,30.40,ENE,70,23.0,24.0,66,-99.99,,,-99.99,,2013-10-13 16:42:00,
2013-10-13 12:54:00,57.0,46.0,30.40,ENE,70,23.0,24.0,66,-99.99,,,-99.99,,2013-10-13 16:54:00,
2013-10-13 13:00:00,58.0,46.0,30.39,ENE,60,16.0,18.0,65,-99.99,,,-99.99,,2013-10-13 17:00:00,
2013-10-13 13:43:00,58.0,46.0,30.39,ENE,60,16.0,18.0,65,-99.99,,,-99.99,,2013-10-13 17:43:00,
2013-10-13 13:52:00,58.0,46.0,30.39,ENE,60,16.0,18.0,65,-99.99,,,-99.99,,2013-10-13 17:52:00,
2013-10-13 14:00:00,57.0,46.0,30.39,ENE,60,15.0,17.0,66,-99.99,,,-99.99,,2013-10-13 18:00:00,
2013-10-13 14:42:00,57.0,46.0,30.39,ENE,60,15.0,17.0,66,-99.99,,,-99.99,,2013-10-13 18:42:00,
2013-10-13 14:52:00,57.0,46.0,30.39,ENE,60,15.0,17.0,66,-99.99,,,-99.99,,2013-10-13 18:52:00,
2013-10-13 15:00:00,57.0,46.0,30.38,ENE,60,14.0,15.0,66,-99.99,,,-99.99,,2013-10-13 19:00:00,
2013-10-13 15:42:00,57.0,46.0,30.38,ENE,60,14.0,15.0,66,-99.99,,,-99.99,,2013-10-13 19:42:00,
2013-10-13 15:52:00,57.0,46.0,30.38,ENE,60,14.0,15.0,66,-99.99,,,-99.99,,2013-10-13 19:52:00,
2013-10-13 16:00:00,57.0,47.0,30.38,NE,40,16.0,18.0,68,-99.99,,,-99.99,,2013-10-13 20:00:00,
2013-10-13 16:43:00,57.0,47.0,30.38,NE,40,16.0,18.0,68,-99.99,,,-99.99,,2013-10-13 20:43:00,
2013-10-13 16:52:00,57.0,47.0,30.38,NE,40,16.0,18.0,68,-99.99,,,-99.99,,2013-10-13 20:52:00,
2013-10-13 17:00:00,57.0,44.0,30.37,NE,40,17.0,20.0,63,-99.99,,,-99.99,,2013-10-13 21:00:00,
2013-10-13 17:44:00,57.0,44.0,30.37,NE,40,17.0,20.0,63,-99.99,,,-99.99,,2013-10-13 21:44:00,
2013-10-13 17:55:00,57.0,44.0,30.37,NE,40,17.0,20.0,63,-99.99,,,-99.99,,2013-10-13 21:55:00,
2013-10-13 18:00:00,56.0,45.0,30.37,NNE,30,18.0,22.0,65,-99.99,,,-99.99,,2013-10-13 22:00:00,
2013-10-13 18:43:00,56.0,45.0,30.37,NNE,30,18.0,22.0,65,-99.99,,,-99.99,,2013-10-13 22:43:00,
2013-10-13 18:53:00,56.0,45.0,30.37,NNE,30,18.0,22.0,65,-99.99,,,-99.99,,2013-10-13 22:53:00,
2013-10-13 19:00:00,56.0,44.0,30.37,NE,50,13.0,16.0,63,-99.99,,,-99.99,,2013-10-13 23:00:00,
2013-10-13 19:42:00,56.0,44.0,30.37,NE,50,13.0,16.0,63,-99.99,,,-99.99,,2013-10-13 23:42:00,
2013-10-13 19:52:00,56.0,44.0,30.37,NE,50,13.0,16.0,63,-99.99,,,-99.99,,2013-10-13 23:52:00,
2013-10-13 20:00:00,55.0,45.0,30.38,NE,50,11.0,13.0,67,-99.99,,,-99.99,,2013-10-14 00:00:00,
2013-10-13 20:42:00,55.0,45.0,30.38,NE,50,11.0,13.0,67,-99.99,,,-99.99,,2013-10-14 00:42:00,
2013-10-13 20:52:00,55.0,45.0,30.38,NE,50,11.0,13.0,67,-99.99,,,-99.99,,2013-10-14 00:52:00,
2013-10-13 21:00:00,55.0,44.0,30.39,ENE,60,10.0,13.0,66,-99.99,,,-99.99,,2013-10-14 01:00:00,
2013-10-13 21:42:00,55.0,44.0,30.39,ENE,60,10.0,13.0,66,-99.99,,,-99.99,,2013-10-14 01:42:00,
2013-10-13 21:52:00,55.0,44.0,30.39,ENE,60,10.0,13.0,66,-99.99,,,-99.99,,2013-10-14 01:52:00,
2013-10-13 22:00:00,54.0,44.0,30.40,ENE,70,11.0,15.0,68,-99.99,,,-99.99,,2013-10-14 02:00:00,
2013-10-13 22:42:00,54.0,44.0,30.40,ENE,70,11.0,15.0,68,-99.99,,,-99.99,,2013-10-14 02:42:00,
2013-10-13 22:52:00,54.0,44.0,30.40,ENE,70,11.0,15.0,68,-99.99,,,-99.99,,2013-10-14 02:52:00,
2013-10-13 23:00:00,54.0,44.0,30.40,ENE,70,11.0,13.0,68,-99.99,,,-99.99,,2013-10-14 03:00:00,
2013-10-13 23:44:00,54.0,44.0,30.40,ENE,70,11.0,13.0,68,-99.99,,,-99.99,,2013-10-14 03:44:00,
2013-10-13 23:55:00,54.0,44.0,30.40,ENE,70,11.0,13.0,68,-99.99,,,-99.99,,2013-10-14 03:55:00,